Flight Track Log - Related Links

Times and Time Zones

All times are in EDT time to prevent confusion due to time zone crossing. See the JBU125 flight status page for this flight to view local times or setup timezone preferences in your user account.

Time Position Orientation Groundspeed Altitude Reporting Facility
EDT Latitude Longitude Course Direction KTS MPH feet Rate Location/Type
Mon 06:24:18 AM 40.6140 -73.7473 272° West  Level FlightAware Approximate
Mon 06:25:18 AM 40.5201 -73.6568 306° West  Level FlightAware Approximate
Mon 06:25:58 AM 40.6167 -73.8333 139° Southeast 200 230 2,500  Level New York TRACON
Mon 06:27:51 AM 40.5144 -73.7167 140° Southeast 259 298 8,000 2,448 Climbing New York Center
Mon 06:28:52 AM 40.4536 -73.6486 139° Southeast 271 312 9,600 1,537 Climbing New York Center
Mon 06:29:52 AM 40.3828 -73.5667 165° South 324 373 11,100 1,513 Climbing New York Center
Mon 06:30:51 AM 40.2794 -73.5297 180° South 365 420 12,600 1,866 Climbing New York Center
Mon 06:31:51 AM 40.1647 -73.5306 183° South 403 464 14,800 1,743 Climbing New York Center
Mon 06:34:21 AM 39.8794 -73.5528 216° Southwest 431 496 18,700 1,592 Climbing Washington Center
Mon 06:35:22 AM 39.7831 -73.6447 217° Southwest 419 482 20,400 1,475 Climbing Washington Center
Mon 06:36:23 AM 39.6764 -73.7500 219° Southwest 431 496 21,700 1,240 Climbing Washington Center
Mon 06:37:23 AM 39.5800 -73.8522 217° Southwest 442 509 22,900 1,169 Climbing Washington Center
Mon 06:38:21 AM 39.4772 -73.9542 218° Southwest 459 528 24,000 958 Climbing Washington Center
Mon 06:39:22 AM 39.3722 -74.0586 221° Southwest 464 534 24,800 843 Climbing Washington Center
Mon 06:40:22 AM 39.2736 -74.1706 220° Southwest 471 542 25,700 1,289 Climbing Washington Center
Mon 06:41:23 AM 39.1708 -74.2825 220° Southwest 476 548 27,400 1,537 Climbing Washington Center
Mon 06:42:23 AM 39.0719 -74.3883 220° Southwest 476 548 28,800 1,119 Climbing Washington Center
Mon 06:43:21 AM 38.9728 -74.4942 208° Southwest 476 548 29,600 857 Climbing Washington Center
Mon 06:44:22 AM 38.8547 -74.5761 203° Southwest 476 548 30,500 885 Climbing Washington Center
Mon 06:45:23 AM 38.7303 -74.6442 206° Southwest 482 555 31,400 1,119 Climbing Washington Center
Mon 06:46:20 AM 38.6056 -74.7203 203° Southwest 493 567 32,700 1,169 Climbing Washington Center
Mon 06:47:21 AM 38.4831 -74.7881 206° Southwest 493 567 33,700 634 Climbing Washington Center
Mon 06:48:23 AM 38.3647 -74.8608 203° Southwest 481 554 34,000 151 Climbing Washington Center
Mon 06:49:20 AM 38.2464 -74.9256 206° Southwest 476 548 34,000  Level Washington Center
Mon 06:50:21 AM 38.1278 -74.9978 205° Southwest 476 548 34,000  Level Washington Center
Mon 06:51:22 AM 38.0072 -75.0700 203° Southwest 476 548 34,000  Level Washington Center
Mon 06:52:22 AM 37.8864 -75.1339 206° Southwest 476 548 34,000  Level Washington Center
Mon 06:53:21 AM 37.7678 -75.2056 204° Southwest 481 554 34,000  Level Washington Center
Mon 06:54:21 AM 37.6472 -75.2719 204° Southwest 481 554 34,000  Level Washington Center
Mon 06:55:22 AM 37.5264 -75.3406 203° Southwest 481 554 34,000  Level Washington Center
Mon 06:56:23 AM 37.4056 -75.4061 205° Southwest 481 554 34,000  Level Washington Center
Mon 06:57:22 AM 37.2844 -75.4769 203° Southwest 481 554 34,000  Level Washington Center
Mon 06:58:23 AM 37.1658 -75.5397 204° Southwest 481 554 34,000  Level Washington Center
Mon 06:59:22 AM 37.0469 -75.6075 204° Southwest 481 554 34,000  Level Washington Center
Mon 07:00:22 AM 36.9278 -75.6750 202° Southwest 481 554 34,000  Level Washington Center
Mon 07:01:23 AM 36.8214 -75.7294 204° Southwest 481 554 34,000  Level Washington Center
Mon 07:02:21 AM 36.6983 -75.7992 204° Southwest 481 554 34,000  Level Washington Center
Mon 07:03:20 AM 36.5792 -75.8661 204° Southwest 481 554 34,000  Level Washington Center
Mon 07:04:22 AM 36.4581 -75.9328 205° Southwest 481 554 34,000  Level Washington Center
Mon 07:05:23 AM 36.3411 -75.9994 203° Southwest 481 554 34,000  Level Washington Center
Mon 07:06:21 AM 36.2219 -76.0631 203° Southwest 481 554 34,000  Level Washington Center
Mon 07:07:21 AM 36.1006 -76.1267 205° Southwest 481 554 34,000  Level Washington Center
Mon 07:08:22 AM 35.9814 -76.1953 204° Southwest 481 554 34,000  Level Washington Center
Mon 07:09:22 AM 35.8619 -76.2611 204° Southwest 481 554 34,000  Level Washington Center
Mon 07:10:23 AM 35.7428 -76.3264 201° Southwest 481 554 34,000  Level Washington Center
Mon 07:11:21 AM 35.6214 -76.3842 205° Southwest 476 548 34,000  Level Washington Center
Mon 07:12:21 AM 35.5042 -76.4519 203° Southwest 476 548 34,000  Level Washington Center
Mon 07:13:21 AM 35.3847 -76.5144 203° Southwest 476 548 34,000  Level Washington Center
Mon 07:14:22 AM 35.2694 -76.5742 204° Southwest 465 535 34,000  Level Washington Center
Mon 07:15:22 AM 35.1458 -76.6411 203° Southwest 465 535 34,000  Level Washington Center
Mon 07:16:23 AM 35.0283 -76.7031 203° Southwest 465 535 34,000  Level Washington Center
Mon 07:17:21 AM 34.9089 -76.7647 204° Southwest 465 535 34,000  Level Washington Center
Mon 07:18:20 AM 34.7914 -76.8289 203° Southwest 465 535 34,000  Level Washington Center
Mon 07:19:22 AM 34.6697 -76.8925 203° Southwest 465 535 34,000  Level Washington Center
Mon 07:20:22 AM 34.5500 -76.9539 204° Southwest 465 535 34,000  Level Washington Center
Mon 07:21:23 AM 34.4325 -77.0172 202° Southwest 465 535 34,000  Level Washington Center
Mon 07:22:23 AM 34.3108 -77.0756 204° Southwest 465 535 34,000  Level Washington Center
Mon 07:23:21 AM 34.1911 -77.1386 203° Southwest 470 541 34,000  Level Washington Center
Mon 07:24:22 AM 34.0608 -77.2039 203° Southwest 470 541 34,000  Level Washington Center
Mon 07:25:22 AM 33.9411 -77.2642 203° Southwest 470 541 34,000  Level Washington Center
Mon 07:26:22 AM 33.8303 -77.3203 203° Southwest 472 543 34,000  Level Jacksonville Center
Mon 07:27:22 AM 33.7117 -77.3803 204° Southwest 472 543 34,000  Level Jacksonville Center
Mon 07:28:22 AM 33.5833 -77.4481 203° Southwest 467 537 34,000  Level Jacksonville Center
Mon 07:29:22 AM 33.4647 -77.5075 203° Southwest 467 537 34,000  Level Jacksonville Center
Mon 07:30:22 AM 33.3483 -77.5667 203° Southwest 467 537 34,000  Level Jacksonville Center
Mon 07:31:22 AM 33.2319 -77.6258 203° Southwest 467 537 34,000  Level Jacksonville Center
Mon 07:32:22 AM 33.1156 -77.6847 203° Southwest 462 532 34,000  Level Jacksonville Center
Mon 07:33:22 AM 32.9989 -77.7436 204° Southwest 462 532 34,000  Level Jacksonville Center
Mon 07:34:22 AM 32.8825 -77.8047 202° Southwest 462 532 34,000  Level Jacksonville Center
Mon 07:35:22 AM 32.7658 -77.8606 204° Southwest 462 532 34,000  Level Jacksonville Center
Mon 07:36:22 AM 32.6492 -77.9214 201° Southwest 467 537 34,000  Level Jacksonville Center
Mon 07:37:22 AM 32.5322 -77.9747 204° Southwest 467 537 34,000  Level Jacksonville Center
Mon 07:38:22 AM 32.4156 -78.0350 204° Southwest 467 537 34,000  Level Jacksonville Center
Mon 07:39:22 AM 32.2989 -78.0953 203° Southwest 467 537 34,000  Level Jacksonville Center
Mon 07:40:22 AM 32.1822 -78.1531 201° Southwest 467 537 34,000  Level Jacksonville Center
Mon 07:41:22 AM 32.0631 -78.2058 203° Southwest 461 531 34,000 -50 Level Jacksonville Center
Mon 07:42:22 AM 31.9506 -78.2628 203° Southwest 461 531 33,900  Descending Jacksonville Center
Mon 07:43:22 AM 31.8356 -78.3200 202° Southwest 456 525 34,000 50 Climbing Jacksonville Center
Mon 07:44:22 AM 31.7167 -78.3772 203° Southwest 456 525 34,000  Level Jacksonville Center
Mon 07:45:22 AM 31.5975 -78.4367 200° South 456 525 34,000  Level Jacksonville Center
Mon 07:46:22 AM 31.4825 -78.4858 202° Southwest 464 534 34,000  Level Jacksonville Center
Mon 07:47:22 AM 31.3675 -78.5400 204° Southwest 445 512 34,000  Level Jacksonville Center
Mon 07:48:22 AM 31.2444 -78.6039 203° Southwest 454 522 34,000  Level Jacksonville Center
Mon 07:49:22 AM 31.1233 -78.6653 199° South 447 514 34,000  Level Jacksonville Center
Mon 07:50:22 AM 31.0100 -78.7117 203° Southwest 476 548 34,000 -50 Level Jacksonville Center
Mon 07:51:22 AM 30.8908 -78.7703 202° Southwest 484 557 33,900  Descending Jacksonville Center
Mon 07:52:22 AM 30.7736 -78.8261 203° Southwest 476 548 34,000  Climbing Jacksonville Center
Mon 07:53:52 AM 30.5844 -78.9175 201° Southwest 460 529 33,900  Descending Miami Center
Mon 07:54:52 AM 30.4606 -78.9728 197° South 460 529 34,000 50 Climbing Miami Center
Mon 07:55:52 AM 30.3411 -79.0161 193° South 460 529 34,000  Level Miami Center
Mon 07:56:52 AM 30.2197 -79.0497 193° South 453 521 34,000  Level Miami Center
Mon 07:57:52 AM 30.0983 -79.0808 195° South 453 521 34,000  Level Miami Center
Mon 07:58:52 AM 29.9831 -79.1167 192° South 447 514 34,000  Level Miami Center
Mon 07:59:52 AM 29.8639 -79.1453 191° South 442 509 34,000  Level Miami Center
Mon 08:00:52 AM 29.7444 -79.1714 194° South 435 501 34,000  Level Miami Center
Mon 08:01:52 AM 29.6292 -79.2047 193° South 435 501 34,000 -100 Level Miami Center
Mon 08:02:52 AM 29.5100 -79.2356 193° South 430 495 33,800 -550 Descending Miami Center
Mon 08:03:52 AM 29.3906 -79.2664 192° South 438 504 32,900 -950 Descending Miami Center
Mon 08:04:52 AM 29.2733 -79.2947 191° South 432 497 31,900 -950 Descending Miami Center
Mon 08:05:52 AM 29.1517 -79.3231 193° South 439 505 31,000 -450 Descending Miami Center
Mon 08:06:52 AM 29.0322 -79.3558 194° South 444 511 31,000  Level Miami Center
Mon 08:07:52 AM 28.9128 -79.3911 226° Southwest 444 511 31,000  Level Miami Center
Mon 08:08:52 AM 28.8317 -79.4864 230° Southwest 420 483 31,000  Level Miami Center
Mon 08:09:52 AM 28.7567 -79.5889 231° Southwest 414 476 31,000  Level Miami Center
Mon 08:10:52 AM 28.6839 -79.6911 230° Southwest 419 482 31,000  Level Miami Center
Mon 08:11:52 AM 28.6067 -79.7956 199° South 429 494 31,000  Level Miami Center
Mon 08:12:52 AM 28.4908 -79.8397 177° South 422 486 31,000  Level Miami Center
Mon 08:13:52 AM 28.3639 -79.8317 179° South 417 480 31,000  Level Miami Center
Mon 08:14:52 AM 28.2511 -79.8286 177° South 447 514 31,000  Level Miami Center
Mon 08:15:52 AM 28.1197 -79.8206 178° South 459 528 31,000  Level Miami Center
Mon 08:16:52 AM 27.9925 -79.8150 176° South 465 535 31,000 -450 Level Miami Center
Mon 08:17:52 AM 27.8550 -79.8042 178° South 455 524 30,100 -1,150 Descending Miami Center
Mon 08:18:52 AM 27.7403 -79.7989 178° South 455 524 28,700 -1,450 Descending Miami Center
Mon 08:19:52 AM 27.6111 -79.7933 177° South 460 529 27,200 -1,500 Descending Miami Center
Mon 08:20:52 AM 27.4733 -79.7850 178° South 460 529 25,700 -1,250 Descending Miami Center
Mon 08:21:52 AM 27.3544 -79.7797 169° South 448 516 24,700 -1,400 Descending Miami Center
Mon 08:22:52 AM 27.2400 -79.7558 164° South 427 491 22,900 -1,850 Descending Miami Center
Mon 08:23:52 AM 27.1447 -79.7256 165° South 405 466 21,000 -1,750 Descending Miami Center
Mon 08:24:52 AM 27.0492 -79.6975 165° South 372 428 19,400 -2,200 Descending Miami Center
Mon 08:25:52 AM 26.9517 -79.6672 165° South 338 389 16,600 -2,400 Descending Miami Center
Mon 08:26:52 AM 26.8603 -79.6392 200° South 329 379 14,600 -1,850 Descending Miami Center
Mon 08:27:52 AM 26.7758 -79.6744 201° Southwest 296 341 12,900 -1,576 Descending Miami Center
Mon 08:28:50 AM 26.6939 -79.7097 205° Southwest 318 366 11,500 -1,400 Descending Miami Center
Mon 08:29:52 AM 26.6178 -79.7497 201° Southwest 308 354 10,100 -1,426 Descending Miami Center
Mon 08:30:52 AM 26.5400 -79.7828 203° Southwest 308 354 8,600 -1,333 Descending Miami Center
Mon 08:31:22 AM 26.4978 -79.8025 204° Southwest 293 337 8,100 -600 Descending Miami Center
Mon 08:31:52 AM 26.4661 -79.8181 204° Southwest 299 344 8,000 -97 Descending Miami Center
Mon 08:32:24 AM 26.4217 -79.8400 213° Southwest 288 331 8,000  Level Miami Center
Mon 08:33:31 AM 26.3475 -79.8939 220° Southwest 287 330 8,000 -188 Level Miami Center
Mon 08:34:32 AM 26.2942 -79.9433 220° Southwest 250 288 7,600 -414 Descending Miami Center
Mon 08:35:27 AM 26.2453 -79.9886 222° Southwest 242 278 7,200 -310 Descending Miami Center
Mon 08:36:28 AM 26.1942 -80.0406 240° Southwest 244 281 7,000 -103 Descending Miami Center
Mon 08:37:24 AM 26.1656 -80.0953 256° West 223 257 7,000  Level Miami Center
Mon 08:38:30 AM 26.1494 -80.1689 271° West 220 253 7,000 -98 Level Miami Center
Mon 08:39:26 AM 26.1500 -80.2289 270° West 218 251 6,800 -444 Descending Miami Center
Mon 08:40:45 AM 26.1503 -80.3169 268° West 217 250 6,000 -375 Descending Miami Center
Mon 08:41:34 AM 26.1489 -80.3700 271° West 207 238 6,000 -404 Level Miami Center
Mon 08:42:29 AM 26.1497 -80.4281 253° West 204 235 5,300 -517 Descending Miami Center
Mon 08:43:30 AM 26.1336 -80.4878 151° Southeast 204 235 5,000 -188 Descending Miami Center
Mon 08:44:37 AM 26.0903 -80.4608 109° East 170 196 4,900 -563 Descending Miami Center
Mon 08:45:38 AM 26.0747 -80.4094 88° East 168 193 3,800 -931 Descending Miami Center
Mon 08:46:33 AM 26.0758 -80.3681 91° East 160 184 3,100 -621 Descending Miami Center
Mon 08:47:34 AM 26.0750 -80.3147 91° East 163 188 2,600 -703 Descending Miami Center
Mon 08:48:41 AM 26.0742 -80.2617 89° East 157 181 1,600 -806 Descending Miami Center
Mon 08:49:48 AM 26.0753 -80.2131 89° East 128 147 800 -716 Descending Miami Center

Login

Don't have an account? Register now (free) for customized features, flight alerts, and more!